createdAt,value
2018-06-08T00:00:11.232Z,10.80
2018-06-08T00:02:39.372Z,11.60
2018-06-08T00:05:07.670Z,10.53
2018-06-08T00:07:35.815Z,10.60
2018-06-08T00:10:03.976Z,10.90
2018-06-08T00:12:32.135Z,10.60
2018-06-08T00:15:00.324Z,10.43
2018-06-08T00:17:28.481Z,10.37
2018-06-08T00:19:56.635Z,11.67
2018-06-08T00:22:24.847Z,10.90
2018-06-08T00:24:53.025Z,10.57
2018-06-08T00:27:21.220Z,11.53
2018-06-08T00:29:49.419Z,10.97
2018-06-08T00:32:17.568Z,10.70
2018-06-08T00:34:45.731Z,13.63
2018-06-08T00:37:13.884Z,14.23
2018-06-08T00:39:42.039Z,12.67
2018-06-08T00:42:10.228Z,12.40
2018-06-08T00:44:38.391Z,12.80
2018-06-08T00:47:06.615Z,13.90
2018-06-08T00:49:34.778Z,12.60
2018-06-08T00:52:02.907Z,12.67
2018-06-08T00:54:31.065Z,13.20
2018-06-08T00:57:08.566Z,13.80
2018-06-08T00:59:43.019Z,13.60
2018-06-08T01:02:11.176Z,13.60
2018-06-08T01:04:39.338Z,14.87
2018-06-08T01:07:07.623Z,13.10
2018-06-08T01:09:35.812Z,14.73
2018-06-08T01:12:03.963Z,13.40
2018-06-08T01:14:33.313Z,15.20
2018-06-08T01:17:01.699Z,16.00
2018-06-08T01:19:33.269Z,15.40
2018-06-08T01:22:01.801Z,14.03
2018-06-08T01:24:29.984Z,14.17
2018-06-08T01:26:58.339Z,17.97
2018-06-08T01:29:26.495Z,16.97
2018-06-08T01:31:54.651Z,17.53
2018-06-08T01:34:22.827Z,17.50
2018-06-08T01:36:50.982Z,16.47
2018-06-08T01:39:19.135Z,15.33
2018-06-08T01:41:47.304Z,17.20
2018-06-08T01:44:15.605Z,16.80
2018-06-08T01:46:43.874Z,16.97
2018-06-08T01:49:12.067Z,16.43
2018-06-08T01:51:40.260Z,17.73
2018-06-08T01:54:08.459Z,15.87
2018-06-08T01:56:36.596Z,14.80
2018-06-08T01:59:04.753Z,16.20
2018-06-08T02:01:32.917Z,15.73
2018-06-08T02:04:01.088Z,15.73
2018-06-08T02:06:29.267Z,15.33
2018-06-08T02:08:57.399Z,15.80
2018-06-08T02:11:25.548Z,15.90
2018-06-08T02:13:53.703Z,14.80
2018-06-08T02:16:21.885Z,17.20
2018-06-08T02:18:50.045Z,17.83
2018-06-08T02:21:18.200Z,15.83
2018-06-08T02:23:46.377Z,16.00
2018-06-08T02:26:14.547Z,15.10
2018-06-08T02:28:42.716Z,15.73
2018-06-08T02:31:10.929Z,16.67
2018-06-08T02:33:39.099Z,18.30
2018-06-08T02:36:07.259Z,15.93
2018-06-08T02:38:35.408Z,16.77
2018-06-08T02:41:03.574Z,18.53
2018-06-08T02:43:31.730Z,19.10
2018-06-08T02:45:59.881Z,18.53
2018-06-08T02:48:28.023Z,16.07
2018-06-08T02:50:56.191Z,16.80
2018-06-08T02:53:24.342Z,17.40
2018-06-08T02:55:52.522Z,15.67
2018-06-08T02:58:20.691Z,16.53
2018-06-08T03:00:49.094Z,16.60
2018-06-08T03:03:17.224Z,16.23
2018-06-08T03:05:45.459Z,16.63
2018-06-08T03:08:13.622Z,17.43
2018-06-08T03:10:41.825Z,16.60
2018-06-08T03:13:09.975Z,15.47
2018-06-08T03:15:38.125Z,15.60
2018-06-08T03:18:06.294Z,17.63
2018-06-08T03:20:34.447Z,15.17
2018-06-08T03:23:02.596Z,18.63
2018-06-08T03:25:30.746Z,16.70
2018-06-08T03:27:58.878Z,17.20
2018-06-08T03:30:27.045Z,17.23
2018-06-08T03:32:55.202Z,17.73
2018-06-08T03:35:23.379Z,17.97
2018-06-08T03:37:51.531Z,17.23
2018-06-08T03:40:19.692Z,19.30
2018-06-08T03:42:47.834Z,20.97
2018-06-08T03:45:16.031Z,19.10
2018-06-08T03:47:44.188Z,20.43
2018-06-08T03:50:12.344Z,19.00
2018-06-08T03:52:40.512Z,20.50
2018-06-08T03:55:08.704Z,19.20
2018-06-08T03:57:36.859Z,18.37
2018-06-08T04:00:05.209Z,18.13
2018-06-08T04:02:33.353Z,19.83
2018-06-08T04:05:01.632Z,17.67
2018-06-08T04:07:29.779Z,18.17
2018-06-08T04:09:57.943Z,18.03
2018-06-08T04:12:26.160Z,16.60
2018-06-08T04:14:54.316Z,16.73
2018-06-08T04:17:22.624Z,18.23
2018-06-08T04:19:50.799Z,17.20
2018-06-08T04:22:19.056Z,15.97
2018-06-08T04:24:47.196Z,17.00
2018-06-08T04:27:15.352Z,18.77
2018-06-08T04:29:43.500Z,18.60
2018-06-08T04:32:11.670Z,17.63
2018-06-08T04:34:39.795Z,20.77
2018-06-08T04:37:07.981Z,18.80
2018-06-08T04:39:36.141Z,17.97
2018-06-08T04:42:04.332Z,18.47
2018-06-08T04:44:32.548Z,18.60
2018-06-08T04:47:00.696Z,19.20
2018-06-08T04:49:28.863Z,20.70
2018-06-08T04:51:57.026Z,19.20
2018-06-08T04:54:25.170Z,19.97
2018-06-08T04:56:53.366Z,19.80
2018-06-08T04:59:21.709Z,18.80
2018-06-08T05:01:49.990Z,19.53
2018-06-08T05:04:18.134Z,19.00
2018-06-08T05:06:46.303Z,20.97
2018-06-08T05:09:14.451Z,21.63
2018-06-08T05:11:42.603Z,20.67
2018-06-08T05:14:11.155Z,20.10
2018-06-08T05:16:39.334Z,21.50
2018-06-08T05:19:07.483Z,22.73
2018-06-08T05:21:35.645Z,23.03
2018-06-08T05:24:03.854Z,23.90
2018-06-08T05:26:32.038Z,22.23
2018-06-08T05:29:00.224Z,20.77
2018-06-08T05:31:28.375Z,21.27
2018-06-08T05:33:56.571Z,21.33
2018-06-08T05:36:24.809Z,18.40
2018-06-08T05:38:52.975Z,18.37
2018-06-08T05:41:21.127Z,18.90
2018-06-08T05:43:49.316Z,19.73
2018-06-08T05:46:17.498Z,19.47
2018-06-08T05:48:45.627Z,18.40
2018-06-08T05:51:13.807Z,20.00
2018-06-08T05:53:42.043Z,19.47
2018-06-08T05:56:10.159Z,18.40
2018-06-08T05:58:38.342Z,19.73
2018-06-08T06:01:06.634Z,18.67
2018-06-08T06:03:36.637Z,19.03
2018-06-08T06:06:14.789Z,21.83
2018-06-08T06:08:55.390Z,21.97
2018-06-08T06:11:32.333Z,21.83
2018-06-08T06:14:11.491Z,22.80
2018-06-08T06:16:45.588Z,21.70
2018-06-08T06:19:15.089Z,21.87
2018-06-08T06:21:46.831Z,22.93
2018-06-08T06:24:15.420Z,20.17
2018-06-08T06:26:44.108Z,22.70
2018-06-08T06:29:15.139Z,19.07
2018-06-08T06:31:52.628Z,20.03
2018-06-08T06:34:34.891Z,19.00
2018-06-08T06:40:02.166Z,21.57
2018-06-08T06:42:40.539Z,20.90
2018-06-08T06:47:57.895Z,21.10
2018-06-08T06:50:27.401Z,20.90
2018-06-08T06:52:57.123Z,23.47
2018-06-08T06:55:26.278Z,22.57
2018-06-08T06:57:58.811Z,23.37
2018-06-08T07:00:32.763Z,21.30
2018-06-08T07:03:19.724Z,22.23
2018-06-08T07:05:56.804Z,20.33
2018-06-08T07:08:29.866Z,20.87
2018-06-08T07:11:01.991Z,21.63
2018-06-08T07:13:47.681Z,23.93
2018-06-08T07:16:25.962Z,23.30
2018-06-08T07:19:08.965Z,24.63
2018-06-08T07:21:45.191Z,20.20
2018-06-08T07:24:37.105Z,20.97
2018-06-08T07:27:12.601Z,22.30
2018-06-08T07:29:45.948Z,21.57
2018-06-08T07:32:14.297Z,19.77
2018-06-08T07:34:42.447Z,20.00
2018-06-08T07:37:10.679Z,19.33
2018-06-08T07:39:38.826Z,19.57
2018-06-08T07:42:06.991Z,19.77
2018-06-08T07:44:35.144Z,19.87
2018-06-08T07:47:03.301Z,17.27
2018-06-08T07:49:31.484Z,18.43
2018-06-08T07:51:59.680Z,18.17
2018-06-08T07:54:27.856Z,16.43
2018-06-08T07:56:56.124Z,17.00
2018-06-08T07:59:24.260Z,15.73
2018-06-08T08:01:53.012Z,16.40
2018-06-08T08:04:21.284Z,16.83
2018-06-08T08:06:49.428Z,14.67
2018-06-08T08:09:17.640Z,15.93
2018-06-08T08:11:45.754Z,15.30
2018-06-08T08:14:13.983Z,14.63
2018-06-08T08:16:42.146Z,15.70
2018-06-08T08:19:10.304Z,15.30
2018-06-08T08:21:38.467Z,14.37
2018-06-08T08:24:06.708Z,16.20
2018-06-08T08:26:42.671Z,16.53
2018-06-08T08:29:10.812Z,13.87
2018-06-08T08:31:39.017Z,14.97
2018-06-08T08:34:07.180Z,14.37
2018-06-08T08:36:35.366Z,13.03
2018-06-08T08:39:03.829Z,14.67
2018-06-08T08:41:32.042Z,13.97
2018-06-08T08:44:00.216Z,14.93
2018-06-08T08:46:28.416Z,13.57
2018-06-08T08:48:56.592Z,16.57
2018-06-08T08:51:24.773Z,16.80
2018-06-08T08:53:52.968Z,13.97
2018-06-08T08:56:21.235Z,14.37
2018-06-08T08:58:49.382Z,15.87
2018-06-08T09:01:17.561Z,17.40
2018-06-08T09:03:45.741Z,19.87
2018-06-08T09:06:13.923Z,14.20
2018-06-08T09:08:42.772Z,15.00
2018-06-08T09:11:10.916Z,13.83
2018-06-08T09:13:39.070Z,14.40
2018-06-08T09:16:07.250Z,13.70
2018-06-08T09:18:35.394Z,17.10
2018-06-08T09:21:03.543Z,16.60
2018-06-08T09:23:31.739Z,14.27
2018-06-08T09:25:59.895Z,15.23
2018-06-08T09:28:28.045Z,14.70
2018-06-08T09:30:56.212Z,12.20
2018-06-08T09:33:24.370Z,11.90
2018-06-08T09:35:52.533Z,13.60
2018-06-08T09:38:20.711Z,11.30
2018-06-08T09:40:48.882Z,12.93
2018-06-08T09:43:17.027Z,12.23
2018-06-08T09:45:45.171Z,13.00
2018-06-08T09:48:13.343Z,12.93
2018-06-08T09:50:41.524Z,11.83
2018-06-08T09:53:09.663Z,11.73
2018-06-08T09:55:37.798Z,11.77
2018-06-08T09:58:06.668Z,12.90
2018-06-08T10:00:40.326Z,11.77
2018-06-08T10:03:08.578Z,12.13
2018-06-08T10:05:36.819Z,11.87
2018-06-08T10:08:05.270Z,13.23
2018-06-08T10:10:33.427Z,13.27
2018-06-08T10:13:01.615Z,12.20
2018-06-08T10:15:29.865Z,10.70
2018-06-08T10:17:58.038Z,12.00
2018-06-08T10:20:26.235Z,11.00
2018-06-08T10:22:54.394Z,10.80
2018-06-08T10:25:22.547Z,12.90
2018-06-08T10:27:50.733Z,10.97
2018-06-08T10:30:18.900Z,11.23
2018-06-08T10:32:47.134Z,10.70
2018-06-08T10:35:15.355Z,10.87
2018-06-08T10:37:43.554Z,12.00
2018-06-08T10:40:11.723Z,11.93
2018-06-08T10:42:39.859Z,10.13
2018-06-08T10:45:08.008Z,12.80
2018-06-08T10:47:38.301Z,12.40
2018-06-08T10:50:06.475Z,11.37
2018-06-08T10:52:34.635Z,11.07
2018-06-08T10:55:02.833Z,11.70
2018-06-08T10:57:31.306Z,12.50
2018-06-08T10:59:59.511Z,13.70
2018-06-08T11:02:27.701Z,12.00
2018-06-08T11:04:55.895Z,11.30
2018-06-08T11:07:24.042Z,11.53
2018-06-08T11:09:53.105Z,11.80
2018-06-08T11:12:21.324Z,12.43
2018-06-08T11:14:49.473Z,11.20
2018-06-08T11:17:17.679Z,11.47
2018-06-08T11:19:45.920Z,9.67
2018-06-08T11:22:14.108Z,11.43
2018-06-08T11:24:42.307Z,10.30
2018-06-08T11:27:10.444Z,10.13
2018-06-08T11:29:38.742Z,10.67
2018-06-08T11:32:06.883Z,10.07
2018-06-08T11:34:35.084Z,10.70
2018-06-08T11:37:03.258Z,12.80
2018-06-08T11:39:31.423Z,17.20
2018-06-08T11:41:59.595Z,12.77
2018-06-08T11:44:27.773Z,11.90
2018-06-08T11:46:56.033Z,10.00
2018-06-08T11:49:24.239Z,10.87
2018-06-08T11:51:52.418Z,11.70
2018-06-08T11:54:20.564Z,10.10
2018-06-08T11:56:48.716Z,39.10
2018-06-08T11:59:16.881Z,14.00
2018-06-08T12:01:45.096Z,9.83
2018-06-08T12:04:13.279Z,13.30
2018-06-08T12:06:41.416Z,11.37
2018-06-08T12:09:09.601Z,10.83
2018-06-08T12:11:37.757Z,9.87
2018-06-08T12:14:05.956Z,9.80
2018-06-08T12:16:34.134Z,9.90
2018-06-08T12:19:02.380Z,10.00
2018-06-08T12:21:30.540Z,10.27
2018-06-08T12:23:58.742Z,9.90
2018-06-08T12:26:26.857Z,9.10
2018-06-08T12:28:55.044Z,9.30
2018-06-08T12:31:23.300Z,9.10
2018-06-08T12:33:51.483Z,10.50
2018-06-08T12:36:19.712Z,8.97
2018-06-08T12:38:47.977Z,11.57
2018-06-08T12:41:16.225Z,12.20
2018-06-08T12:43:44.517Z,10.17
2018-06-08T12:46:12.751Z,8.60
2018-06-08T12:48:40.911Z,9.30
2018-06-08T12:51:09.058Z,11.67
2018-06-08T12:53:37.214Z,12.63
2018-06-08T12:56:05.409Z,8.77
2018-06-08T12:58:33.582Z,28.23
2018-06-08T13:01:01.775Z,10.17
2018-06-08T13:03:29.932Z,8.83
2018-06-08T13:05:58.115Z,8.80
2018-06-08T13:08:26.271Z,10.43
2018-06-08T13:10:54.448Z,16.77
2018-06-08T13:13:22.571Z,8.83
2018-06-08T13:15:50.733Z,18.87
2018-06-08T13:18:18.923Z,8.20
2018-06-08T13:20:47.066Z,8.30
2018-06-08T13:23:15.215Z,7.90
2018-06-08T13:25:43.383Z,8.83
2018-06-08T13:28:11.514Z,8.23
2018-06-08T13:30:39.677Z,8.70
2018-06-08T13:33:07.847Z,7.63
2018-06-08T13:35:36.018Z,7.57
2018-06-08T13:38:04.180Z,6.80
2018-06-08T13:40:32.744Z,7.27
2018-06-08T13:43:01.706Z,7.10
2018-06-08T13:45:30.021Z,7.63
2018-06-08T13:47:58.542Z,7.20
2018-06-08T13:50:27.014Z,7.83
2018-06-08T13:52:55.372Z,7.47
2018-06-08T13:55:23.818Z,6.93
2018-06-08T13:57:52.962Z,7.40
2018-06-08T14:00:22.223Z,7.40
2018-06-08T14:02:50.502Z,7.60
2018-06-08T14:05:19.005Z,7.90
2018-06-08T14:07:47.301Z,7.10
2018-06-08T14:10:15.681Z,7.37
2018-06-08T14:12:43.960Z,6.80
2018-06-08T14:15:12.951Z,7.40
2018-06-08T14:17:41.409Z,7.10
2018-06-08T14:20:09.667Z,7.60
2018-06-08T14:22:38.230Z,6.90
2018-06-08T14:25:09.668Z,7.87
2018-06-08T14:27:38.646Z,7.53
2018-06-08T14:30:09.716Z,7.77
2018-06-08T14:32:37.985Z,8.03
2018-06-08T14:35:06.472Z,6.93
2018-06-08T14:37:35.004Z,8.30
2018-06-08T14:40:03.422Z,7.50
2018-06-08T14:42:31.741Z,7.60
2018-06-08T14:45:00.057Z,7.70
2018-06-08T14:47:28.491Z,7.97
2018-06-08T14:49:57.381Z,8.17
2018-06-08T14:52:25.738Z,6.57
2018-06-08T14:54:54.118Z,7.10
2018-06-08T14:57:22.441Z,7.03
2018-06-08T14:59:50.914Z,7.13
2018-06-08T15:02:19.120Z,6.77
2018-06-08T15:04:47.523Z,5.87
2018-06-08T15:07:16.550Z,6.63
2018-06-08T15:09:44.936Z,5.50
2018-06-08T15:12:13.135Z,6.50
2018-06-08T15:14:41.275Z,6.30
2018-06-08T15:17:09.504Z,4.90
2018-06-08T15:19:37.654Z,4.47
2018-06-08T15:22:05.831Z,4.23
2018-06-08T15:24:34.026Z,4.13
2018-06-08T15:27:02.183Z,7.73
2018-06-08T15:29:30.411Z,6.53
2018-06-08T15:31:58.555Z,4.50
2018-06-08T15:34:26.733Z,4.60
2018-06-08T15:36:54.886Z,4.90
2018-06-08T15:39:23.051Z,4.03
2018-06-08T15:41:51.208Z,3.70
2018-06-08T15:44:19.370Z,3.10
2018-06-08T15:46:47.555Z,3.80
2018-06-08T15:49:15.683Z,3.90
2018-06-08T15:51:43.823Z,5.67
2018-06-08T15:54:11.961Z,4.73
2018-06-08T15:56:40.100Z,3.90
2018-06-08T15:59:08.240Z,4.20
2018-06-08T16:01:36.384Z,4.07
2018-06-08T16:04:04.696Z,4.03
2018-06-08T16:06:33.451Z,4.00
2018-06-08T16:09:01.599Z,6.00
2018-06-08T16:11:29.748Z,8.53
2018-06-08T16:13:57.890Z,5.97
2018-06-08T16:16:26.090Z,5.87
2018-06-08T16:18:54.329Z,6.60
2018-06-08T16:21:22.503Z,5.40
2018-06-08T16:23:50.650Z,5.53
2018-06-08T16:26:18.861Z,5.67
2018-06-08T16:28:47.072Z,9.57
2018-06-08T16:31:15.255Z,7.57
2018-06-08T16:33:43.399Z,6.00
2018-06-08T16:36:11.658Z,5.50
2018-06-08T16:38:39.756Z,5.80
2018-06-08T16:41:07.910Z,5.60
2018-06-08T16:43:36.082Z,6.40
2018-06-08T16:46:04.251Z,5.87
2018-06-08T16:48:32.408Z,6.00
2018-06-08T16:51:00.550Z,6.47
2018-06-08T16:53:28.897Z,5.30
2018-06-08T16:55:57.029Z,5.93
2018-06-08T16:58:25.195Z,5.70
2018-06-08T17:00:53.340Z,5.30
2018-06-08T17:03:21.529Z,5.33
2018-06-08T17:05:49.683Z,5.30
2018-06-08T17:08:17.862Z,5.60
2018-06-08T17:10:45.995Z,6.53
2018-06-08T17:13:14.164Z,6.30
2018-06-08T17:15:42.345Z,6.30
2018-06-08T17:18:10.562Z,4.60
2018-06-08T17:20:38.695Z,6.77
2018-06-08T17:23:06.961Z,7.27
2018-06-08T17:25:35.119Z,6.03
2018-06-08T17:28:03.294Z,4.70
2018-06-08T17:30:31.464Z,5.17
2018-06-08T17:32:59.631Z,4.40
2018-06-08T17:35:27.770Z,4.63
2018-06-08T17:37:56.106Z,4.80
2018-06-08T17:40:24.316Z,5.70
2018-06-08T17:42:52.480Z,6.50
2018-06-08T17:45:20.674Z,4.83
2018-06-08T17:47:48.815Z,4.70
2018-06-08T17:50:17.033Z,4.90
2018-06-08T17:52:45.339Z,4.67
2018-06-08T17:55:13.519Z,5.00
2018-06-08T17:57:42.340Z,5.17
2018-06-08T18:00:11.839Z,5.87
2018-06-08T18:02:40.103Z,5.60
2018-06-08T18:05:08.386Z,5.10
2018-06-08T18:07:36.546Z,5.33
2018-06-08T18:10:05.120Z,6.50
2018-06-08T18:12:33.370Z,5.60
2018-06-08T18:15:01.610Z,5.63
2018-06-08T18:17:29.790Z,6.10
2018-06-08T18:19:58.050Z,5.20
2018-06-08T18:22:26.288Z,5.10
2018-06-08T18:24:54.521Z,5.40
2018-06-08T18:27:23.009Z,5.10
2018-06-08T18:29:51.253Z,5.13
2018-06-08T18:32:19.528Z,5.63
2018-06-08T18:34:48.746Z,5.40
2018-06-08T18:37:16.969Z,5.10
2018-06-08T18:39:45.329Z,5.13
2018-06-08T18:42:13.566Z,5.73
2018-06-08T18:44:43.476Z,4.60
2018-06-08T18:47:11.663Z,5.03
2018-06-08T18:49:39.846Z,4.57
2018-06-08T18:52:08.029Z,4.30
2018-06-08T18:54:36.231Z,5.30
2018-06-08T18:57:04.487Z,5.40
2018-06-08T18:59:32.659Z,5.77
2018-06-08T19:02:00.867Z,4.83
2018-06-08T19:04:29.880Z,5.07
2018-06-08T19:06:58.122Z,4.50
2018-06-08T19:09:26.381Z,5.07
2018-06-08T19:11:54.580Z,5.00
2018-06-08T19:14:23.003Z,5.80
2018-06-08T19:16:51.303Z,4.50
2018-06-08T19:19:19.665Z,4.80
2018-06-08T19:21:47.869Z,4.80
2018-06-08T19:24:16.074Z,5.27
2018-06-08T19:26:44.270Z,5.20
2018-06-08T19:29:12.469Z,4.60
2018-06-08T19:31:40.782Z,5.70
2018-06-08T19:34:09.177Z,5.07
2018-06-08T19:36:37.471Z,5.50
2018-06-08T19:39:08.703Z,5.00
2018-06-08T19:41:37.016Z,4.70
2018-06-08T19:44:05.210Z,5.57
2018-06-08T19:46:33.484Z,4.90
2018-06-08T19:49:01.730Z,5.20
2018-06-08T19:51:29.959Z,5.33
2018-06-08T19:53:58.272Z,5.93
2018-06-08T19:56:26.517Z,5.83
2018-06-08T19:58:54.774Z,5.77
2018-06-08T20:01:22.967Z,5.30
2018-06-08T20:03:51.159Z,5.80
2018-06-08T20:06:19.428Z,5.37
2018-06-08T20:08:47.669Z,5.87
2018-06-08T20:11:16.781Z,4.60
2018-06-08T20:13:45.056Z,5.57
2018-06-08T20:16:13.246Z,5.40
2018-06-08T20:18:41.468Z,5.67
2018-06-08T20:21:18.062Z,5.63
2018-06-08T20:23:46.381Z,6.10
2018-06-08T20:26:14.593Z,6.80
2018-06-08T20:28:42.808Z,6.30
2018-06-08T20:31:11.077Z,5.97
2018-06-08T20:33:39.293Z,6.33
2018-06-08T20:36:07.580Z,5.27
2018-06-08T20:38:35.785Z,5.90
2018-06-08T20:41:04.079Z,5.80
2018-06-08T20:43:32.383Z,6.13
2018-06-08T20:46:00.616Z,6.00
2018-06-08T20:48:28.778Z,5.80
2018-06-08T20:50:57.018Z,6.83
2018-06-08T20:53:26.035Z,6.03
2018-06-08T20:55:54.387Z,6.33
2018-06-08T20:58:26.795Z,6.23
2018-06-08T21:00:55.004Z,6.13
2018-06-08T21:03:23.184Z,6.27
2018-06-08T21:05:51.404Z,6.23
2018-06-08T21:08:19.609Z,6.10
2018-06-08T21:10:47.835Z,6.47
2018-06-08T21:13:16.013Z,6.10
2018-06-08T21:15:44.223Z,8.10
2018-06-08T21:18:12.457Z,6.80
2018-06-08T21:20:40.711Z,7.47
2018-06-08T21:23:09.716Z,6.60
2018-06-08T21:25:38.290Z,6.70
2018-06-08T21:28:07.406Z,7.70
2018-06-08T21:30:35.778Z,7.47
2018-06-08T21:33:04.123Z,7.30
2018-06-08T21:35:32.869Z,7.40
2018-06-08T21:38:01.115Z,7.97
2018-06-08T21:40:29.358Z,7.73
2018-06-08T21:42:57.654Z,8.50
2018-06-08T21:45:25.867Z,7.80
2018-06-08T21:47:54.043Z,8.40
2018-06-08T21:50:22.272Z,8.07
2018-06-08T21:52:50.897Z,13.03
2018-06-08T21:55:19.192Z,14.33
2018-06-08T21:57:47.395Z,14.27
2018-06-08T22:00:15.657Z,13.00
2018-06-08T22:02:43.826Z,10.30
2018-06-08T22:07:46.612Z,8.83
2018-06-08T22:10:14.994Z,9.50
2018-06-08T22:12:43.934Z,9.87
2018-06-08T22:15:12.481Z,8.90
2018-06-08T22:17:40.685Z,8.40
2018-06-08T22:20:08.896Z,8.00
2018-06-08T22:22:37.099Z,7.37
2018-06-08T22:25:06.138Z,8.40
2018-06-08T22:27:34.672Z,7.83
2018-06-08T22:30:02.928Z,8.87
2018-06-08T22:32:31.209Z,8.10
2018-06-08T22:34:59.415Z,7.63
2018-06-08T22:37:27.640Z,7.27
2018-06-08T22:39:55.844Z,8.10
2018-06-08T22:42:25.017Z,8.27
2018-06-08T22:44:53.287Z,8.20
2018-06-08T22:47:22.193Z,8.50
2018-06-08T22:49:50.546Z,8.03
2018-06-08T22:52:18.807Z,7.20
2018-06-08T22:54:47.023Z,8.30
2018-06-08T22:57:15.204Z,8.40
2018-06-08T22:59:43.677Z,7.27
2018-06-08T23:02:12.861Z,9.10
2018-06-08T23:04:41.209Z,8.50
2018-06-08T23:07:09.996Z,10.43
2018-06-08T23:09:38.188Z,7.77
2018-06-08T23:12:06.575Z,9.00
2018-06-08T23:14:34.791Z,7.47
2018-06-08T23:17:03.373Z,7.80
2018-06-08T23:19:31.497Z,7.77
2018-06-08T23:21:59.791Z,8.50
2018-06-08T23:24:28.205Z,9.30
2018-06-08T23:26:56.554Z,8.23
2018-06-08T23:29:24.775Z,8.43
2018-06-08T23:31:52.997Z,8.60
2018-06-08T23:34:21.258Z,9.30
2018-06-08T23:36:49.811Z,8.40
2018-06-08T23:39:18.066Z,8.70
2018-06-08T23:41:46.356Z,8.50
2018-06-08T23:44:14.551Z,9.03
2018-06-08T23:46:43.132Z,9.17
2018-06-08T23:49:11.779Z,9.17
2018-06-08T23:51:39.984Z,8.73
2018-06-08T23:54:08.203Z,9.13
2018-06-08T23:56:36.458Z,9.13
2018-06-08T23:59:04.726Z,9.80
